Time;durP1;ratioP1;P1;durP2;ratioP2;P2;SDS_P1;SDS_P2;PMS_P1;PMS_P2;Temp;Humidity;BMP_temperature;BMP_pressure;BME280_temperature;BME280_humidity;BME280_pressure;Samples;Min_cycle;Max_cycle;Signal;HPM_P1;HPM_P2
2023/01/31 00:01:06;;;;;;;17.98;10.02;;;;;;;-0.10;95.29;61991.75;4972624;28;20243;-80
2023/01/31 00:03:33;;;;;;;14.15;9.05;;;;;;;-0.25;94.36;61973.34;4983912;28;20216;-81
2023/01/31 00:06:15;;;;;;;18.55;9.75;;;;;;;-0.20;94.83;61981.50;4980892;28;20200;-81
2023/01/31 00:08:43;;;;;;;16.55;9.20;;;;;;;-0.16;94.26;61985.59;4969041;28;20212;-81
2023/01/31 00:11:10;;;;;;;20.67;10.68;;;;;;;-0.04;93.79;61994.88;4974261;28;20259;-80
2023/01/31 00:13:38;;;;;;;17.08;10.40;;;;;;;0.03;92.97;61996.53;4973796;28;20268;-79
2023/01/31 00:16:06;;;;;;;17.58;10.02;;;;;;;0.08;92.97;62009.16;4970731;28;20224;-80
2023/01/31 00:18:34;;;;;;;19.60;10.75;;;;;;;0.18;91.81;62017.41;4966853;28;20224;-81
2023/01/31 00:21:06;;;;;;;20.15;10.45;;;;;;;0.17;91.00;62015.88;4973592;28;20259;-80
2023/01/31 00:23:34;;;;;;;17.35;10.63;;;;;;;0.18;91.39;62014.91;4973239;28;20201;-80
2023/01/31 00:26:10;;;;;;;19.75;10.38;;;;;;;0.14;93.73;62012.81;4972385;28;20486;-80
2023/01/31 00:28:38;;;;;;;17.52;10.32;;;;;;;0.07;94.30;62005.63;4972754;29;20248;-82
2023/01/31 00:31:06;;;;;;;22.70;12.15;;;;;;;0.08;94.71;62006.66;4972780;28;20231;-80
2023/01/31 00:33:33;;;;;;;25.05;12.93;;;;;;;-0.23;94.73;61977.91;4973716;28;20411;-79
2023/01/31 00:36:03;;;;;;;30.10;14.00;;;;;;;-0.45;94.96;61955.38;4969160;28;20209;-79
2023/01/31 00:38:30;;;;;;;33.42;14.45;;;;;;;-0.39;96.25;61957.03;4972866;29;20221;-80
2023/01/31 00:40:59;;;;;;;24.85;13.48;;;;;;;-0.30;96.52;61963.22;4965550;29;20285;-81
2023/01/31 00:43:26;;;;;;;28.00;14.57;;;;;;;-0.35;96.76;61965.63;4955017;28;20232;-81
2023/01/31 00:45:54;;;;;;;26.77;12.55;;;;;;;-0.52;96.23;61948.69;4969974;28;20215;-79
2023/01/31 00:48:21;;;;;;;22.25;10.98;;;;;;;-0.53;96.95;61944.66;4971793;29;20212;-80
2023/01/31 00:50:49;;;;;;;23.20;11.52;;;;;;;-0.64;96.79;61935.91;4971671;28;20232;-79
2023/01/31 00:53:22;;;;;;;21.90;10.75;;;;;;;-0.49;96.99;61948.78;4971671;28;20204;-81
2023/01/31 00:55:49;;;;;;;20.83;11.07;;;;;;;-0.42;96.54;61958.44;4991906;28;20211;-81
2023/01/31 00:58:18;;;;;;;22.13;10.98;;;;;;;-0.45;95.57;61953.38;4990613;28;20396;-79
2023/01/31 01:00:45;;;;;;;25.25;11.48;;;;;;;-0.52;96.19;61950.72;4984383;28;20219;-81
2023/01/31 01:03:12;;;;;;;20.85;10.98;;;;;;;-0.42;96.37;61955.94;4965588;28;20248;-80
2023/01/31 01:05:40;;;;;;;20.60;10.63;;;;;;;-0.36;96.69;61965.09;4972869;28;20216;-80
2023/01/31 01:08:07;;;;;;;23.45;12.07;;;;;;;-0.30;96.96;61968.25;4973178;28;20256;-80
2023/01/31 01:10:34;;;;;;;25.30;11.23;;;;;;;-0.31;97.02;61969.72;4970709;28;20260;-80
2023/01/31 01:13:01;;;;;;;22.00;11.60;;;;;;;-0.39;96.59;61957.03;4969968;28;20280;-81
2023/01/31 01:15:29;;;;;;;23.30;12.38;;;;;;;-0.69;97.17;61928.28;4965328;28;20454;-80
2023/01/31 01:17:56;;;;;;;23.70;11.82;;;;;;;-0.95;98.41;61904.69;4951977;29;20387;-81
2023/01/31 01:20:24;;;;;;;21.77;11.88;;;;;;;-0.88;99.77;61906.34;4968786;28;20216;-81
2023/01/31 01:22:51;;;;;;;25.95;12.38;;;;;;;-0.73;99.86;61924.19;4971554;28;20377;-79
2023/01/31 01:25:18;;;;;;;24.17;11.40;;;;;;;-0.75;99.09;61922.66;4971794;28;20252;-79
2023/01/31 01:27:45;;;;;;;15.55;7.75;;;;;;;-0.83;93.70;61911.47;4971576;28;20235;-76
2023/01/31 01:30:12;;;;;;;15.38;8.20;;;;;;;-0.61;86.74;61942.00;4966753;28;20223;-79
2023/01/31 01:32:41;;;;;;;9.68;5.60;;;;;;;-0.49;82.13;61951.78;4971169;28;20454;-78
2023/01/31 01:35:09;;;;;;;8.88;5.10;;;;;;;-0.29;74.76;61969.25;4971751;28;20263;-82
2023/01/31 01:37:36;;;;;;;2.63;2.38;;;;;;;-0.11;62.40;61988.22;4969099;28;20264;-77
2023/01/31 01:40:04;;;;;;;2.35;1.70;;;;;;;0.44;53.32;62044.06;4985164;28;20525;-77
2023/01/31 01:42:35;;;;;;;2.40;1.88;;;;;;;0.67;50.82;62067.66;4974991;28;20256;-81
2023/01/31 01:45:04;;;;;;;3.13;2.05;;;;;;;0.84;49.39;62089.59;4951148;29;20233;-80
2023/01/31 01:47:39;;;;;;;1.92;1.77;;;;;;;1.00;48.85;62103.50;4958314;28;20553;-80
2023/01/31 01:50:13;;;;;;;3.33;2.13;;;;;;;1.13;47.31;62117.34;4989508;28;20196;-80
2023/01/31 01:52:45;;;;;;;2.20;1.98;;;;;;;1.19;48.39;62120.97;4972588;28;20414;-77
2023/01/31 01:55:19;;;;;;;5.03;2.22;;;;;;;1.08;50.58;62107.19;4973429;28;20201;-78
2023/01/31 01:57:50;;;;;;;3.17;2.30;;;;;;;1.14;48.68;62113.34;4965788;28;20240;-80
2023/01/31 02:00:21;;;;;;;2.92;2.50;;;;;;;1.11;49.39;62112.25;4970950;29;20228;-80
2023/01/31 02:02:51;;;;;;;2.15;1.95;;;;;;;1.19;47.99;62117.97;4972116;28;20252;-80
2023/01/31 02:05:24;;;;;;;2.03;1.92;;;;;;;1.14;46.99;62112.81;4969249;28;20221;-79
2023/01/31 02:07:51;;;;;;;2.58;2.38;;;;;;;1.11;47.81;62109.75;4970342;28;20225;-80
2023/01/31 02:10:24;;;;;;;2.72;2.50;;;;;;;1.06;47.73;62107.66;4954160;28;20209;-79
2023/01/31 02:12:52;;;;;;;2.58;2.38;;;;;;;1.10;47.80;62111.75;4951858;29;20229;-81
2023/01/31 02:15:20;;;;;;;3.55;1.80;;;;;;;1.08;46.74;62109.19;4957811;29;20213;-77
2023/01/31 02:17:47;;;;;;;2.75;1.83;;;;;;;1.05;47.00;62104.09;4969703;28;20228;-81
2023/01/31 02:20:56;;;;;;;5.97;3.17;;;;;;;1.04;45.62;62103.09;4968590;28;20264;-79
2023/01/31 02:24:05;;;;;;;2.47;2.28;;;;;;;1.00;47.99;62104.00;4967569;28;20339;-78
2023/01/31 02:27:07;;;;;;;2.30;1.75;;;;;;;0.92;47.22;62098.31;4971847;28;20251;-81
2023/01/31 02:30:01;;;;;;;3.22;2.30;;;;;;;0.85;47.38;62086.09;4951323;29;20208;-79
2023/01/31 02:32:48;;;;;;;2.65;2.45;;;;;;;0.90;45.77;62090.72;4945543;29;20240;-79
2023/01/31 02:35:28;;;;;;;3.15;2.85;;;;;;;1.01;46.26;62104.50;4969155;28;20209;-79
2023/01/31 02:38:04;;;;;;;2.72;2.42;;;;;;;1.00;47.22;62101.00;4968956;28;20228;-77
2023/01/31 02:40:40;;;;;;;2.97;2.38;;;;;;;1.07;48.48;62108.16;4971449;28;20263;-80
2023/01/31 02:43:13;;;;;;;7.00;2.50;;;;;;;1.02;48.95;62103.03;4969406;28;20311;-77
2023/01/31 02:45:49;;;;;;;3.13;2.83;;;;;;;1.02;51.31;62106.06;4967189;28;20205;-81
2023/01/31 02:48:24;;;;;;;3.60;2.88;;;;;;;1.05;52.06;62108.63;4971701;29;20209;-82
2023/01/31 02:51:00;;;;;;;1.92;1.80;;;;;;;1.21;52.79;62127.53;4968214;28;20252;-80
2023/01/31 02:53:32;;;;;;;4.10;1.67;;;;;;;1.19;53.53;62126.00;4967877;28;20219;-79
2023/01/31 02:56:17;;;;;;;2.70;2.50;;;;;;;1.13;54.76;62109.81;4985519;28;20450;-79
2023/01/31 02:58:50;;;;;;;4.50;2.35;;;;;;;1.22;54.86;62125.53;4989698;28;20219;-80
2023/01/31 03:01:23;;;;;;;3.22;2.45;;;;;;;1.21;55.53;62119.50;4970926;28;20219;-82
2023/01/31 03:03:52;;;;;;;3.72;2.53;;;;;;;1.15;57.41;62121.91;4961931;28;20225;-81
2023/01/31 03:06:53;;;;;;;2.95;2.05;;;;;;;1.15;59.43;62121.91;4957622;28;20228;-82
2023/01/31 03:09:30;;;;;;;2.92;2.70;;;;;;;1.14;62.46;62115.84;4969872;29;20217;-81
2023/01/31 03:12:04;;;;;;;5.75;3.05;;;;;;;1.03;65.24;62102.06;4967100;28;20240;-79
2023/01/31 03:14:40;;;;;;;4.95;3.55;;;;;;;1.00;66.28;62101.50;4986431;28;20203;-78
2023/01/31 03:17:33;;;;;;;3.70;2.85;;;;;;;0.97;67.17;62100.91;4990812;28;20579;-80
2023/01/31 03:20:08;;;;;;;5.57;3.67;;;;;;;0.85;70.57;62088.09;4957656;29;20206;-81
2023/01/31 03:22:40;;;;;;;3.45;2.90;;;;;;;0.87;73.09;62085.13;4973203;28;20250;-80
2023/01/31 03:25:10;;;;;;;4.25;3.10;;;;;;;0.72;75.91;62075.28;4988261;28;20288;-76
2023/01/31 03:27:39;;;;;;;2.83;2.53;;;;;;;0.69;77.58;62069.69;4972646;28;20221;-79
2023/01/31 03:30:13;;;;;;;4.35;3.65;;;;;;;0.60;79.47;62054.94;4957759;29;20208;-79
2023/01/31 03:32:46;;;;;;;6.07;4.05;;;;;;;0.56;80.89;62060.88;4967831;28;20223;-81
2023/01/31 03:35:15;;;;;;;4.60;2.83;;;;;;;0.55;82.61;62055.34;4975712;28;20263;-78
2023/01/31 03:37:52;;;;;;;4.40;3.13;;;;;;;0.51;83.70;62045.72;4973991;28;20229;-78
2023/01/31 03:40:24;;;;;;;7.55;4.07;;;;;;;0.47;84.47;62047.16;4954049;29;20490;-79
2023/01/31 03:42:56;;;;;;;2.83;2.65;;;;;;;0.41;85.81;62043.50;4954601;29;20241;-76
2023/01/31 03:45:28;;;;;;;4.78;3.55;;;;;;;0.31;86.66;62027.72;4954180;29;20522;-79
2023/01/31 03:47:58;;;;;;;7.03;3.92;;;;;;;0.35;86.99;62037.34;4963855;29;20224;-80
2023/01/31 03:50:31;;;;;;;5.30;2.95;;;;;;;0.33;88.00;62032.28;4974520;29;20220;-80
2023/01/31 03:53:05;;;;;;;6.47;3.42;;;;;;;0.35;88.91;62036.81;4976320;28;20288;-81
2023/01/31 03:55:37;;;;;;;6.70;4.47;;;;;;;0.32;89.64;62031.78;4957853;29;20216;-81
2023/01/31 03:58:08;;;;;;;5.95;3.40;;;;;;;0.19;90.19;62020.94;4973470;29;20232;-80
2023/01/31 04:00:39;;;;;;;4.32;3.92;;;;;;;0.28;90.79;62019.63;4973479;29;20228;-82
2023/01/31 04:03:14;;;;;;;5.82;3.65;;;;;;;0.28;91.37;62030.16;4972487;28;20236;-77
2023/01/31 04:05:44;;;;;;;7.28;4.72;;;;;;;0.19;91.68;62020.94;4964605;28;20204;-77
2023/01/31 04:08:12;;;;;;;4.25;3.85;;;;;;;0.28;91.22;62032.16;4976194;28;20260;-80
2023/01/31 04:10:39;;;;;;;5.60;3.80;;;;;;;0.19;91.24;62020.44;4972959;28;20420;-80
2023/01/31 04:13:06;;;;;;;3.80;3.47;;;;;;;0.19;91.48;62018.44;4959274;28;20229;-78
2023/01/31 04:15:34;;;;;;;5.82;4.03;;;;;;;0.20;91.19;62021.47;4976570;28;20403;-83
2023/01/31 04:18:01;;;;;;;5.78;4.10;;;;;;;0.13;92.11;62019.81;4971857;28;20326;-79
2023/01/31 04:20:29;;;;;;;4.88;3.75;;;;;;;0.17;92.57;62016.41;4973752;28;20208;-79
2023/01/31 04:22:58;;;;;;;8.10;4.55;;;;;;;0.26;92.88;62028.13;4967182;28;20273;-80
2023/01/31 04:25:25;;;;;;;8.23;4.68;;;;;;;0.06;94.62;62002.63;4953214;29;20280;-82
2023/01/31 04:27:52;;;;;;;6.43;4.00;;;;;;;0.03;95.47;61999.56;4957993;29;20235;-79
2023/01/31 04:30:19;;;;;;;9.13;4.32;;;;;;;-0.10;96.43;61986.75;4953793;29;20216;-78
2023/01/31 04:32:46;;;;;;;9.95;5.60;;;;;;;-0.21;97.71;61975.47;4960938;28;20388;-79
2023/01/31 04:35:14;;;;;;;6.15;3.83;;;;;;;-0.19;98.32;61979.50;4971362;28;20208;-80
2023/01/31 04:37:41;;;;;;;7.82;5.25;;;;;;;-0.17;98.80;61984.56;4972915;28;20239;-78
2023/01/31 04:40:12;;;;;;;9.63;5.13;;;;;;;-0.53;99.12;61945.19;4971731;28;20200;-80
2023/01/31 04:42:39;;;;;;;5.47;4.35;;;;;;;-0.29;99.55;61969.78;4969452;28;20470;-80
2023/01/31 04:45:08;;;;;;;4.32;3.78;;;;;;;-0.25;100.00;61976.38;4972725;28;20229;-80
2023/01/31 04:47:34;;;;;;;8.27;5.15;;;;;;;-0.35;100.00;61965.63;4972795;28;20288;-78
2023/01/31 04:50:02;;;;;;;6.10;4.63;;;;;;;-0.32;100.00;61966.19;4965516;28;20216;-80
2023/01/31 04:52:29;;;;;;;5.88;3.90;;;;;;;-0.30;100.00;61970.75;4956194;29;20300;-77
2023/01/31 04:54:56;;;;;;;7.50;4.38;;;;;;;-0.29;99.93;61969.25;4969205;28;20205;-79
2023/01/31 04:57:25;;;;;;;5.00;3.70;;;;;;;-0.29;100.00;61972.28;4970184;28;20300;-79
2023/01/31 04:59:52;;;;;;;5.35;4.00;;;;;;;-0.33;100.00;61967.66;4970888;28;20208;-80
2023/01/31 05:02:19;;;;;;;10.15;5.00;;;;;;;-0.22;100.00;61973.94;4968258;28;20237;-81
2023/01/31 05:04:47;;;;;;;5.32;3.33;;;;;;;-0.20;98.54;61974.00;4970989;28;20235;-79
2023/01/31 05:07:13;;;;;;;6.13;3.28;;;;;;;-0.20;97.18;61981.50;4971869;28;20242;-79
2023/01/31 05:09:41;;;;;;;5.75;3.35;;;;;;;-0.10;97.10;61986.22;4969671;28;20252;-80
2023/01/31 05:12:08;;;;;;;8.90;3.75;;;;;;;-0.12;96.65;61986.66;4978993;28;20426;-76
2023/01/31 05:14:36;;;;;;;3.88;3.47;;;;;;;-0.14;95.97;61987.13;4965339;28;20514;-78
2023/01/31 05:17:04;;;;;;;4.25;3.72;;;;;;;-0.07;95.74;61989.81;4970990;29;20240;-80
2023/01/31 05:19:31;;;;;;;6.10;4.05;;;;;;;-0.06;95.30;61992.81;4963449;28;20208;-79
2023/01/31 05:21:58;;;;;;;5.22;3.85;;;;;;;-0.03;94.77;61998.41;4970737;28;20243;-79
2023/01/31 05:24:28;;;;;;;4.35;2.78;;;;;;;-0.12;94.54;61986.66;4970430;29;20216;-80
2023/01/31 05:26:57;;;;;;;5.32;4.00;;;;;;;-0.03;94.16;61998.91;4970692;28;20229;-80
2023/01/31 05:29:25;;;;;;;5.38;4.22;;;;;;;0.00;94.08;61998.97;4969255;28;20221;-78
2023/01/31 05:31:55;;;;;;;6.15;4.22;;;;;;;-0.03;94.27;61995.91;4966626;29;20226;-79
2023/01/31 05:34:24;;;;;;;6.07;2.88;;;;;;;-0.01;94.41;62000.44;4969431;28;20215;-80
2023/01/31 05:36:51;;;;;;;6.63;3.83;;;;;;;-0.10;94.55;61994.25;4962442;29;20220;-79
2023/01/31 05:39:18;;;;;;;6.70;4.57;;;;;;;-0.08;94.86;61991.28;4970025;28;20421;-80
2023/01/31 05:41:48;;;;;;;4.90;4.00;;;;;;;0.00;94.44;62001.97;4970206;29;20228;-78
2023/01/31 05:44:16;;;;;;;6.30;4.10;;;;;;;0.07;94.37;62003.13;4973404;29;20272;-80
2023/01/31 05:46:43;;;;;;;6.82;4.25;;;;;;;0.09;94.53;62010.69;4971079;28;20244;-79
2023/01/31 05:49:12;;;;;;;4.70;3.08;;;;;;;0.03;94.88;62005.06;4976943;28;20219;-79
2023/01/31 05:51:39;;;;;;;7.03;4.20;;;;;;;0.05;95.02;61999.09;4971967;28;20232;-81
2023/01/31 05:54:07;;;;;;;4.80;3.28;;;;;;;0.02;94.63;61998.00;4977555;28;20201;-79
2023/01/31 05:56:34;;;;;;;5.63;3.25;;;;;;;0.05;94.51;62003.59;4969867;29;20260;-78
2023/01/31 05:59:02;;;;;;;5.65;3.63;;;;;;;0.06;93.48;62007.09;4970733;28;20204;-78
2023/01/31 06:01:29;;;;;;;5.50;4.00;;;;;;;0.01;93.86;62000.00;4968285;28;20252;-77
2023/01/31 06:03:56;;;;;;;8.65;4.43;;;;;;;0.10;94.22;62006.22;4967489;29;20244;-76
2023/01/31 06:06:24;;;;;;;6.05;3.08;;;;;;;0.12;94.72;62010.75;4968219;28;20256;-77
2023/01/31 06:08:52;;;;;;;4.18;3.45;;;;;;;0.14;95.30;62013.31;4969535;28;20561;-79
2023/01/31 06:11:19;;;;;;;4.00;3.67;;;;;;;0.20;95.77;62021.47;4977140;28;20232;-79
2023/01/31 06:13:48;;;;;;;4.38;3.72;;;;;;;0.19;96.70;62018.44;4973002;28;20205;-80
2023/01/31 06:16:15;;;;;;;5.18;4.20;;;;;;;0.24;97.01;62023.56;4968770;28;20221;-81
2023/01/31 06:18:42;;;;;;;7.55;4.22;;;;;;;0.28;97.11;62022.13;4970457;28;20200;-78
2023/01/31 06:21:10;;;;;;;6.60;4.03;;;;;;;0.27;97.46;62026.13;4972970;29;20529;-80
2023/01/31 06:23:39;;;;;;;5.70;4.45;;;;;;;0.30;97.59;62032.22;4971536;28;20237;-77
2023/01/31 06:26:06;;;;;;;7.13;4.22;;;;;;;0.30;97.85;62027.22;4970793;28;20588;-79
2023/01/31 06:28:33;;;;;;;10.20;5.30;;;;;;;0.32;98.48;62033.75;4982320;28;20260;-82
2023/01/31 06:31:06;;;;;;;6.40;4.07;;;;;;;0.30;98.28;62029.19;4992970;28;20204;-78
2023/01/31 06:33:33;;;;;;;5.63;4.50;;;;;;;0.32;97.94;62034.28;4979626;28;20216;-81
2023/01/31 06:36:00;;;;;;;5.75;4.38;;;;;;;0.38;97.93;62037.41;4968548;28;20213;-80
2023/01/31 06:38:27;;;;;;;6.57;4.25;;;;;;;0.49;97.43;62051.69;4969304;28;20219;-78
2023/01/31 06:40:56;;;;;;;4.70;3.47;;;;;;;0.55;96.49;62062.34;4968774;28;20204;-81
2023/01/31 06:43:23;;;;;;;6.43;4.57;;;;;;;0.50;97.10;62052.72;4962538;28;20228;-80
2023/01/31 06:45:50;;;;;;;5.03;3.80;;;;;;;0.36;97.65;62035.88;4960359;28;20205;-79
2023/01/31 06:48:18;;;;;;;7.10;5.07;;;;;;;0.37;97.91;62039.41;4960338;29;20254;-79
2023/01/31 06:50:45;;;;;;;4.97;4.20;;;;;;;0.46;98.13;62045.59;4955081;29;20233;-78
2023/01/31 06:53:12;;;;;;;5.25;4.30;;;;;;;0.43;98.04;62042.53;4966411;29;20206;-79
2023/01/31 06:55:39;;;;;;;6.07;5.00;;;;;;;0.49;98.03;62049.19;4961534;29;20247;-79
2023/01/31 06:58:08;;;;;;;6.32;4.55;;;;;;;0.55;96.87;62057.34;4966550;29;20251;-78
2023/01/31 07:00:35;;;;;;;5.82;4.00;;;;;;;0.40;96.89;62039.97;4949164;29;20213;-76
2023/01/31 07:03:02;;;;;;;7.55;4.15;;;;;;;0.45;97.31;62042.09;4956042;28;20234;-79
2023/01/31 07:05:29;;;;;;;6.43;4.38;;;;;;;0.56;96.35;62053.34;4955599;28;20209;-79
2023/01/31 07:07:56;;;;;;;6.80;4.57;;;;;;;0.63;95.01;62063.56;4949440;29;20233;-80
2023/01/31 07:10:23;;;;;;;4.13;3.30;;;;;;;0.75;93.20;62072.84;4959665;28;20215;-81
2023/01/31 07:12:50;;;;;;;4.45;3.58;;;;;;;0.61;93.09;62061.50;4962980;28;20297;-78
2023/01/31 07:15:20;;;;;;;6.97;4.22;;;;;;;0.65;93.28;62065.59;4960083;28;20209;-79
2023/01/31 07:17:47;;;;;;;6.50;4.22;;;;;;;0.71;91.58;62069.25;4965019;29;20229;-80
2023/01/31 07:20:15;;;;;;;5.45;3.60;;;;;;;0.89;90.46;62089.69;4958564;29;20215;-81
2023/01/31 07:22:42;;;;;;;6.13;4.20;;;;;;;0.88;90.28;62083.66;4970434;28;20225;-80
2023/01/31 07:25:09;;;;;;;5.03;4.18;;;;;;;0.76;91.60;62073.88;4974416;28;20201;-82
2023/01/31 07:27:37;;;;;;;7.97;3.83;;;;;;;0.76;93.11;62073.88;4970490;28;20424;-82
2023/01/31 07:30:04;;;;;;;6.90;4.30;;;;;;;0.86;94.43;62089.63;4977340;28;20278;-82
2023/01/31 07:32:33;;;;;;;6.65;4.10;;;;;;;0.74;94.77;62071.81;4977627;28;20233;-79
2023/01/31 07:35:00;;;;;;;5.97;4.10;;;;;;;0.74;96.25;62071.81;4969279;29;20263;-83
2023/01/31 07:37:27;;;;;;;5.47;4.65;;;;;;;0.87;96.76;62082.63;4969888;29;20248;-80
2023/01/31 07:39:54;;;;;;;6.50;4.68;;;;;;;0.79;97.13;62076.94;4985571;28;20443;-81
2023/01/31 07:42:21;;;;;;;6.72;3.72;;;;;;;0.84;97.84;62087.06;4974647;28;20228;-80
2023/01/31 07:44:48;;;;;;;4.65;4.03;;;;;;;0.77;98.13;62077.91;4987229;28;20259;-79
2023/01/31 07:47:16;;;;;;;7.10;4.55;;;;;;;0.81;98.23;62081.50;4973501;28;20296;-81
2023/01/31 07:49:44;;;;;;;4.28;3.85;;;;;;;0.90;98.31;62093.22;4986412;28;20244;-83
2023/01/31 07:52:11;;;;;;;7.45;4.47;;;;;;;0.88;98.00;62091.69;4968169;28;20263;-81
2023/01/31 07:54:39;;;;;;;5.22;3.83;;;;;;;0.98;96.19;62101.94;4977960;28;20210;-83
2023/01/31 07:57:06;;;;;;;4.00;3.42;;;;;;;1.03;95.76;62104.56;4986109;28;20232;-80
2023/01/31 07:59:33;;;;;;;5.00;3.95;;;;;;;1.09;96.00;62107.69;4979495;28;20265;-80
2023/01/31 08:04:46;;;;;;;5.45;4.30;;;;;;;0.99;97.54;62097.44;4977208;28;20272;-82
2023/01/31 08:07:14;;;;;;;6.35;4.55;;;;;;;0.94;98.59;62095.34;4981427;28;20226;-78
2023/01/31 08:09:44;;;;;;;4.90;4.45;;;;;;;1.08;98.49;62109.19;4980907;28;20244;-81
2023/01/31 08:12:12;;;;;;;3.88;3.58;;;;;;;1.28;97.41;62132.22;4970582;28;20221;-79
2023/01/31 08:14:39;;;;;;;4.28;3.88;;;;;;;1.33;94.94;62134.34;4969192;29;20299;-79
2023/01/31 08:17:07;;;;;;;4.22;3.85;;;;;;;1.33;94.42;62129.81;4952857;29;20225;-78
2023/01/31 08:19:34;;;;;;;4.20;3.55;;;;;;;1.43;92.36;62149.59;4954418;29;20281;-78
2023/01/31 08:22:03;;;;;;;5.05;3.42;;;;;;;1.38;91.98;62142.47;4965366;28;20481;-81
2023/01/31 08:24:30;;;;;;;3.38;2.90;;;;;;;1.48;90.66;62149.72;4987964;28;20243;-81
2023/01/31 08:26:57;;;;;;;5.90;3.42;;;;;;;1.43;90.53;62145.09;4987005;28;20429;-78
2023/01/31 08:29:25;;;;;;;4.35;3.95;;;;;;;1.47;90.43;62151.69;4957272;28;20229;-79
2023/01/31 08:31:53;;;;;;;3.50;3.28;;;;;;;1.42;91.17;62143.56;4954765;29;20265;-79
2023/01/31 08:34:22;;;;;;;3.70;3.30;;;;;;;1.64;91.09;62166.13;4959380;28;20510;-81
2023/01/31 08:36:49;;;;;;;4.00;3.60;;;;;;;1.73;88.95;62180.91;4963894;28;20474;-79
2023/01/31 08:39:18;;;;;;;3.67;3.35;;;;;;;1.73;88.91;62175.38;4975077;28;20209;-78
2023/01/31 08:41:45;;;;;;;3.67;3.38;;;;;;;1.73;89.01;62175.88;4973482;28;20220;-80
2023/01/31 08:44:12;;;;;;;4.78;4.22;;;;;;;1.72;89.17;62174.34;4959204;28;20468;-81
2023/01/31 08:46:40;;;;;;;3.20;2.75;;;;;;;1.76;88.28;62180.97;4955364;29;20225;-82
2023/01/31 08:49:07;;;;;;;3.22;2.92;;;;;;;1.53;89.12;62154.84;4954034;29;20203;-82
2023/01/31 08:51:35;;;;;;;3.10;2.60;;;;;;;1.53;90.03;62154.84;4954785;28;20225;-79
2023/01/31 08:54:02;;;;;;;4.75;3.28;;;;;;;1.54;90.54;62158.38;4994277;28;20227;-81
2023/01/31 08:56:31;;;;;;;3.72;3.42;;;;;;;1.56;90.86;62158.44;4993732;28;20232;-82
2023/01/31 08:58:58;;;;;;;3.92;2.90;;;;;;;1.35;92.08;62136.88;4993928;28;20243;-79
2023/01/31 09:01:25;;;;;;;3.30;3.03;;;;;;;1.51;90.67;62147.78;4991527;28;20287;-83
2023/01/31 09:03:55;;;;;;;1.92;1.83;;;;;;;1.48;90.44;62152.22;4991993;28;20232;-80
2023/01/31 09:06:26;;;;;;;3.22;2.92;;;;;;;1.62;89.80;62167.13;4992885;28;20212;-79
2023/01/31 09:08:56;;;;;;;3.28;2.85;;;;;;;1.47;86.03;62148.69;4995376;28;20231;-78
2023/01/31 09:11:23;;;;;;;3.55;3.08;;;;;;;1.68;85.11;62172.75;4989629;28;20251;-81
2023/01/31 09:13:51;;;;;;;5.15;3.00;;;;;;;1.71;84.14;62173.31;4992234;28;20204;-80
2023/01/31 09:16:19;;;;;;;3.45;2.78;;;;;;;1.73;84.46;62175.38;4977263;28;20452;-79
2023/01/31 09:18:47;;;;;;;3.05;2.78;;;;;;;1.96;82.80;62194.47;4972667;28;20268;-80
2023/01/31 09:21:16;;;;;;;2.90;2.70;;;;;;;2.26;81.00;62229.78;4993100;28;20228;-80
2023/01/31 09:23:45;;;;;;;2.80;2.58;;;;;;;2.08;80.21;62213.81;4984211;28;20233;-77
2023/01/31 09:26:13;;;;;;;4.57;2.53;;;;;;;2.01;81.34;62204.13;4975681;29;20220;-80
2023/01/31 09:28:42;;;;;;;3.33;3.00;;;;;;;2.23;80.72;62227.22;4971621;28;20208;-78
2023/01/31 09:31:12;;;;;;;3.20;3.00;;;;;;;2.17;79.96;62221.06;4973500;28;20252;-78
2023/01/31 09:33:40;;;;;;;3.10;2.90;;;;;;;2.16;79.73;62220.03;4972430;29;20201;-81
2023/01/31 09:36:09;;;;;;;3.42;3.13;;;;;;;2.24;79.47;62227.75;4972755;29;20481;-82
2023/01/31 09:38:37;;;;;;;4.05;3.08;;;;;;;2.19;80.08;62220.09;4956913;29;20225;-80
2023/01/31 09:41:06;;;;;;;3.40;3.08;;;;;;;2.15;81.06;62224.03;4968128;29;20229;-79
2023/01/31 09:43:40;;;;;;;2.92;2.63;;;;;;;2.22;80.61;62226.19;4976790;29;20236;-79
2023/01/31 09:46:15;;;;;;;3.17;2.90;;;;;;;2.22;78.93;62225.69;4971119;28;20231;-79
2023/01/31 09:48:46;;;;;;;4.97;2.88;;;;;;;2.40;79.04;62241.16;4972492;28;20485;-79
2023/01/31 09:51:14;;;;;;;3.45;2.20;;;;;;;2.44;77.98;62252.78;4983520;28;20295;-78
2023/01/31 09:53:42;;;;;;;3.90;2.72;;;;;;;2.30;78.51;62236.41;4990189;28;20226;-79
2023/01/31 09:56:32;;;;;;;2.50;2.40;;;;;;;2.34;77.84;62238.53;4979216;28;20232;-81
2023/01/31 09:59:08;;;;;;;2.15;2.05;;;;;;;2.42;76.87;62243.72;4989079;28;20228;-82
2023/01/31 10:01:46;;;;;;;2.58;2.42;;;;;;;2.63;73.19;62264.75;4991758;28;20224;-77
2023/01/31 10:04:29;;;;;;;2.00;1.90;;;;;;;2.65;73.21;62269.84;4990899;28;20258;-84
2023/01/31 10:07:03;;;;;;;2.65;2.45;;;;;;;2.48;75.04;62249.34;4960340;29;20223;-79
2023/01/31 10:09:35;;;;;;;1.90;1.80;;;;;;;2.42;75.19;62243.22;4971710;28;20231;-79
2023/01/31 10:12:11;;;;;;;2.00;1.90;;;;;;;2.60;75.85;62266.72;4974902;29;20221;-79
2023/01/31 10:14:45;;;;;;;2.53;2.33;;;;;;;2.85;73.41;62289.88;4967669;28;20199;-78
2023/01/31 10:17:18;;;;;;;2.70;2.50;;;;;;;2.67;74.00;62271.91;4961639;28;20228;-80
2023/01/31 10:19:51;;;;;;;3.42;3.15;;;;;;;2.71;77.83;62281.03;4956121;29;20208;-79
2023/01/31 10:22:25;;;;;;;2.53;2.33;;;;;;;2.93;74.00;62298.63;4961388;28;20229;-83
2023/01/31 10:24:58;;;;;;;1.40;1.40;;;;;;;2.93;72.25;62303.66;4961680;29;20264;-79
2023/01/31 10:27:43;;;;;;;3.30;3.00;;;;;;;3.04;72.53;62309.41;4960486;29;20569;-80
2023/01/31 10:30:17;;;;;;;2.65;2.45;;;;;;;3.11;72.16;62317.13;4964712;29;20209;-81
2023/01/31 10:32:51;;;;;;;2.92;2.28;;;;;;;3.33;71.34;62337.22;4961216;28;20228;-80
2023/01/31 10:35:23;;;;;;;3.10;2.90;;;;;;;3.45;70.10;62354.56;4962230;29;20206;-77
2023/01/31 10:37:55;;;;;;;3.83;2.40;;;;;;;3.46;67.58;62355.63;4970228;29;20279;-77
2023/01/31 10:40:28;;;;;;;2.53;2.33;;;;;;;3.42;66.13;62346.47;4969606;28;20271;-77
2023/01/31 10:43:00;;;;;;;1.70;1.60;;;;;;;3.12;67.59;62323.16;4968617;29;20221;-83
2023/01/31 10:45:29;;;;;;;2.63;2.40;;;;;;;3.26;68.00;62334.53;4959180;29;20228;-78
2023/01/31 10:48:12;;;;;;;2.53;2.33;;;;;;;3.22;69.99;62332.94;4963020;28;20276;-82
2023/01/31 10:50:54;;;;;;;2.15;1.95;;;;;;;3.30;69.78;62336.13;4965239;28;20299;-81
2023/01/31 10:53:39;;;;;;;1.65;1.60;;;;;;;3.27;67.79;62333.56;4963447;29;20235;-78
2023/01/31 10:56:08;;;;;;;2.10;2.00;;;;;;;2.97;69.84;62304.75;4967587;29;20292;-79
2023/01/31 10:58:37;;;;;;;1.95;1.85;;;;;;;3.05;68.93;62310.44;4968074;28;20256;-81
2023/01/31 11:01:10;;;;;;;2.92;2.13;;;;;;;3.13;69.88;62321.69;4971845;28;20204;-78
2023/01/31 11:03:39;;;;;;;1.83;1.73;;;;;;;2.60;75.06;62264.72;4963141;29;20196;-76
2023/01/31 11:06:08;;;;;;;3.55;2.85;;;;;;;2.05;81.14;62215.75;4958213;28;20264;-82
2023/01/31 11:08:43;;;;;;;2.90;2.63;;;;;;;2.35;81.29;62239.03;4967847;29;20213;-81
2023/01/31 11:11:12;;;;;;;3.28;2.70;;;;;;;2.11;83.89;62211.88;4959170;29;20262;-79
2023/01/31 11:13:39;;;;;;;3.20;2.90;;;;;;;2.07;85.75;62210.78;4971403;29;20252;-82
2023/01/31 11:16:09;;;;;;;3.90;3.47;;;;;;;2.07;86.77;62218.31;4973391;29;20458;-84
2023/01/31 11:18:46;;;;;;;6.10;3.15;;;;;;;1.87;88.88;62190.25;4963168;28;20205;-78
2023/01/31 11:21:22;;;;;;;6.07;3.45;;;;;;;1.90;89.66;62190.31;4991590;28;20239;-82
2023/01/31 11:23:50;;;;;;;3.97;3.35;;;;;;;1.88;89.67;62191.28;4989791;28;20196;-85
2023/01/31 11:26:27;;;;;;;3.58;3.28;;;;;;;1.89;89.51;62189.28;4988114;28;20240;-79
2023/01/31 11:28:56;;;;;;;2.97;2.75;;;;;;;2.08;88.49;62208.78;4974268;28;20235;-80
2023/01/31 11:31:36;;;;;;;3.08;2.88;;;;;;;2.05;89.02;62208.22;4981730;28;20255;-82
2023/01/31 11:34:09;;;;;;;3.13;2.90;;;;;;;1.96;90.89;62199.50;4990809;28;20268;-82
2023/01/31 11:36:44;;;;;;;2.70;2.50;;;;;;;1.84;92.70;62184.66;4979610;28;20278;-78
2023/01/31 11:39:25;;;;;;;2.80;2.60;;;;;;;1.89;93.43;62189.81;4975442;28;20215;-79
2023/01/31 11:41:53;;;;;;;2.45;2.35;;;;;;;1.79;94.95;62184.56;4991512;28;20291;-81
2023/01/31 11:44:21;;;;;;;2.65;2.47;;;;;;;1.61;96.26;62161.06;4974750;28;20229;-77
2023/01/31 11:46:55;;;;;;;2.50;2.40;;;;;;;1.66;97.97;62170.69;4969134;29;20232;-85
2023/01/31 11:49:35;;;;;;;3.97;3.63;;;;;;;1.54;99.61;62155.88;4966543;28;20266;-82
2023/01/31 11:52:13;;;;;;;3.58;2.58;;;;;;;1.55;99.92;62151.88;4972470;28;20246;-78
2023/01/31 11:54:43;;;;;;;3.25;2.95;;;;;;;1.63;99.46;62165.09;4974971;29;20253;-81